sensor_id;sensor_type;location;lat;lon;timestamp;P1;durP1;ratioP1;P2;durP2;ratioP2
21339;SDS011;10828;47.064;15.422;2023-02-01T00:01:44;8.37;;;3.40;;
21339;SDS011;10828;47.064;15.422;2023-02-01T00:04:09;7.00;;;2.80;;
21339;SDS011;10828;47.064;15.422;2023-02-01T00:06:37;4.93;;;2.93;;
21339;SDS011;10828;47.064;15.422;2023-02-01T00:11:37;10.47;;;3.13;;
21339;SDS011;10828;47.064;15.422;2023-02-01T00:14:04;7.63;;;2.63;;
21339;SDS011;10828;47.064;15.422;2023-02-01T00:16:32;9.97;;;3.47;;
21339;SDS011;10828;47.064;15.422;2023-02-01T00:19:01;8.57;;;3.47;;
21339;SDS011;10828;47.064;15.422;2023-02-01T00:21:43;7.53;;;2.87;;
21339;SDS011;10828;47.064;15.422;2023-02-01T00:24:12;8.80;;;3.50;;
21339;SDS011;10828;47.064;15.422;2023-02-01T00:26:41;8.97;;;3.53;;
21339;SDS011;10828;47.064;15.422;2023-02-01T00:29:12;12.60;;;3.47;;
21339;SDS011;10828;47.064;15.422;2023-02-01T00:31:42;6.97;;;2.60;;
21339;SDS011;10828;47.064;15.422;2023-02-01T00:34:10;6.57;;;3.00;;
21339;SDS011;10828;47.064;15.422;2023-02-01T00:36:45;7.60;;;2.70;;
21339;SDS011;10828;47.064;15.422;2023-02-01T00:41:45;8.40;;;2.43;;
21339;SDS011;10828;47.064;15.422;2023-02-01T00:44:12;8.37;;;4.03;;
21339;SDS011;10828;47.064;15.422;2023-02-01T00:46:40;8.93;;;2.70;;
21339;SDS011;10828;47.064;15.422;2023-02-01T00:49:06;9.30;;;3.07;;
21339;SDS011;10828;47.064;15.422;2023-02-01T00:51:40;8.93;;;2.53;;
21339;SDS011;10828;47.064;15.422;2023-02-01T00:54:05;7.20;;;3.50;;
21339;SDS011;10828;47.064;15.422;2023-02-01T00:56:33;14.07;;;4.00;;
21339;SDS011;10828;47.064;15.422;2023-02-01T00:58:59;9.20;;;3.00;;
21339;SDS011;10828;47.064;15.422;2023-02-01T01:01:27;8.37;;;3.60;;
21339;SDS011;10828;47.064;15.422;2023-02-01T01:03:54;12.97;;;4.00;;
21339;SDS011;10828;47.064;15.422;2023-02-01T01:06:30;8.03;;;3.90;;
21339;SDS011;10828;47.064;15.422;2023-02-01T01:09:01;6.87;;;2.60;;
21339;SDS011;10828;47.064;15.422;2023-02-01T01:11:32;14.73;;;4.07;;
21339;SDS011;10828;47.064;15.422;2023-02-01T01:14:07;10.07;;;2.77;;
21339;SDS011;10828;47.064;15.422;2023-02-01T01:16:33;4.70;;;2.33;;
21339;SDS011;10828;47.064;15.422;2023-02-01T01:19:03;12.30;;;3.77;;
21339;SDS011;10828;47.064;15.422;2023-02-01T01:21:31;9.27;;;2.87;;
21339;SDS011;10828;47.064;15.422;2023-02-01T01:23:59;6.57;;;3.00;;
21339;SDS011;10828;47.064;15.422;2023-02-01T01:26:27;9.63;;;4.03;;
21339;SDS011;10828;47.064;15.422;2023-02-01T01:28:59;5.27;;;3.23;;
21339;SDS011;10828;47.064;15.422;2023-02-01T01:31:26;17.60;;;3.43;;
21339;SDS011;10828;47.064;15.422;2023-02-01T01:33:56;10.80;;;4.00;;
21339;SDS011;10828;47.064;15.422;2023-02-01T01:36:23;9.37;;;3.23;;
21339;SDS011;10828;47.064;15.422;2023-02-01T01:38:51;22.17;;;3.70;;
21339;SDS011;10828;47.064;15.422;2023-02-01T01:41:21;10.13;;;3.10;;
21339;SDS011;10828;47.064;15.422;2023-02-01T01:43:55;13.47;;;4.30;;
21339;SDS011;10828;47.064;15.422;2023-02-01T01:46:24;9.33;;;3.40;;
21339;SDS011;10828;47.064;15.422;2023-02-01T01:51:31;5.50;;;2.97;;
21339;SDS011;10828;47.064;15.422;2023-02-01T01:54:13;6.33;;;2.27;;
21339;SDS011;10828;47.064;15.422;2023-02-01T01:56:51;12.70;;;2.97;;
21339;SDS011;10828;47.064;15.422;2023-02-01T01:59:23;6.90;;;3.23;;
21339;SDS011;10828;47.064;15.422;2023-02-01T02:01:51;21.03;;;2.90;;
21339;SDS011;10828;47.064;15.422;2023-02-01T02:04:18;6.13;;;2.53;;
21339;SDS011;10828;47.064;15.422;2023-02-01T02:09:32;6.80;;;3.23;;
21339;SDS011;10828;47.064;15.422;2023-02-01T02:12:01;11.53;;;4.07;;
21339;SDS011;10828;47.064;15.422;2023-02-01T02:14:29;3.93;;;2.03;;
21339;SDS011;10828;47.064;15.422;2023-02-01T02:17:05;11.30;;;3.30;;
21339;SDS011;10828;47.064;15.422;2023-02-01T02:28:17;6.77;;;2.77;;
21339;SDS011;10828;47.064;15.422;2023-02-01T02:40:04;5.97;;;2.57;;
21339;SDS011;10828;47.064;15.422;2023-02-01T02:43:10;4.83;;;2.53;;
21339;SDS011;10828;47.064;15.422;2023-02-01T02:46:37;12.43;;;3.70;;
21339;SDS011;10828;47.064;15.422;2023-02-01T02:49:34;18.97;;;4.30;;
21339;SDS011;10828;47.064;15.422;2023-02-01T02:52:09;7.93;;;2.83;;
21339;SDS011;10828;47.064;15.422;2023-02-01T02:54:59;9.47;;;2.47;;
21339;SDS011;10828;47.064;15.422;2023-02-01T02:57:38;5.90;;;2.23;;
21339;SDS011;10828;47.064;15.422;2023-02-01T03:00:29;7.83;;;3.13;;
21339;SDS011;10828;47.064;15.422;2023-02-01T03:03:18;6.07;;;2.47;;
21339;SDS011;10828;47.064;15.422;2023-02-01T03:06:08;5.60;;;2.60;;
21339;SDS011;10828;47.064;15.422;2023-02-01T03:08:42;7.87;;;2.27;;
21339;SDS011;10828;47.064;15.422;2023-02-01T03:11:14;5.13;;;2.50;;
21339;SDS011;10828;47.064;15.422;2023-02-01T03:13:51;15.13;;;3.53;;
21339;SDS011;10828;47.064;15.422;2023-02-01T03:16:23;5.03;;;2.83;;
21339;SDS011;10828;47.064;15.422;2023-02-01T03:19:02;5.47;;;2.60;;
21339;SDS011;10828;47.064;15.422;2023-02-01T03:21:43;7.77;;;2.87;;
21339;SDS011;10828;47.064;15.422;2023-02-01T03:24:18;4.73;;;2.17;;
21339;SDS011;10828;47.064;15.422;2023-02-01T03:27:21;25.60;;;3.07;;
21339;SDS011;10828;47.064;15.422;2023-02-01T03:30:09;12.47;;;3.40;;
21339;SDS011;10828;47.064;15.422;2023-02-01T03:32:39;7.07;;;3.10;;
21339;SDS011;10828;47.064;15.422;2023-02-01T03:38:12;6.93;;;2.90;;
21339;SDS011;10828;47.064;15.422;2023-02-01T03:40:58;8.17;;;2.20;;
21339;SDS011;10828;47.064;15.422;2023-02-01T03:43:41;8.30;;;3.00;;
21339;SDS011;10828;47.064;15.422;2023-02-01T03:46:42;5.30;;;2.60;;
21339;SDS011;10828;47.064;15.422;2023-02-01T03:52:28;4.73;;;2.53;;
21339;SDS011;10828;47.064;15.422;2023-02-01T03:54:59;5.47;;;2.50;;
21339;SDS011;10828;47.064;15.422;2023-02-01T03:57:28;4.43;;;2.13;;
21339;SDS011;10828;47.064;15.422;2023-02-01T04:00:04;14.67;;;2.60;;
21339;SDS011;10828;47.064;15.422;2023-02-01T04:05:40;5.17;;;2.73;;
21339;SDS011;10828;47.064;15.422;2023-02-01T04:08:08;6.50;;;2.80;;
21339;SDS011;10828;47.064;15.422;2023-02-01T04:10:34;14.60;;;3.23;;
21339;SDS011;10828;47.064;15.422;2023-02-01T04:13:00;4.60;;;2.10;;
21339;SDS011;10828;47.064;15.422;2023-02-01T04:15:25;6.47;;;2.63;;
21339;SDS011;10828;47.064;15.422;2023-02-01T04:17:57;11.30;;;2.93;;
21339;SDS011;10828;47.064;15.422;2023-02-01T04:20:25;5.97;;;2.87;;
21339;SDS011;10828;47.064;15.422;2023-02-01T04:22:51;12.00;;;3.17;;
21339;SDS011;10828;47.064;15.422;2023-02-01T04:25:19;12.33;;;4.03;;
21339;SDS011;10828;47.064;15.422;2023-02-01T04:27:53;6.03;;;2.10;;
21339;SDS011;10828;47.064;15.422;2023-02-01T04:30:21;2.93;;;1.83;;
21339;SDS011;10828;47.064;15.422;2023-02-01T04:32:49;8.90;;;3.07;;
21339;SDS011;10828;47.064;15.422;2023-02-01T04:35:15;10.30;;;3.00;;
21339;SDS011;10828;47.064;15.422;2023-02-01T04:37:44;5.67;;;2.80;;
21339;SDS011;10828;47.064;15.422;2023-02-01T04:40:12;6.33;;;2.57;;
21339;SDS011;10828;47.064;15.422;2023-02-01T04:42:38;19.50;;;3.20;;
21339;SDS011;10828;47.064;15.422;2023-02-01T04:45:05;7.40;;;2.30;;
21339;SDS011;10828;47.064;15.422;2023-02-01T04:47:32;11.20;;;2.63;;
21339;SDS011;10828;47.064;15.422;2023-02-01T04:50:00;7.80;;;2.50;;
21339;SDS011;10828;47.064;15.422;2023-02-01T04:52:27;7.70;;;3.17;;
21339;SDS011;10828;47.064;15.422;2023-02-01T04:54:53;6.80;;;3.03;;
21339;SDS011;10828;47.064;15.422;2023-02-01T04:57:24;6.33;;;2.40;;
21339;SDS011;10828;47.064;15.422;2023-02-01T04:59:51;9.97;;;3.23;;
21339;SDS011;10828;47.064;15.422;2023-02-01T05:02:16;5.70;;;2.73;;
21339;SDS011;10828;47.064;15.422;2023-02-01T05:04:51;7.43;;;3.00;;
21339;SDS011;10828;47.064;15.422;2023-02-01T05:07:17;11.40;;;2.57;;
21339;SDS011;10828;47.064;15.422;2023-02-01T05:09:43;7.03;;;2.50;;
21339;SDS011;10828;47.064;15.422;2023-02-01T05:12:10;5.27;;;2.87;;
21339;SDS011;10828;47.064;15.422;2023-02-01T05:14:54;17.53;;;3.33;;
21339;SDS011;10828;47.064;15.422;2023-02-01T05:17:23;6.27;;;2.63;;
21339;SDS011;10828;47.064;15.422;2023-02-01T05:19:57;7.77;;;2.80;;
21339;SDS011;10828;47.064;15.422;2023-02-01T05:22:23;8.43;;;3.00;;
21339;SDS011;10828;47.064;15.422;2023-02-01T05:24:52;6.30;;;3.03;;
21339;SDS011;10828;47.064;15.422;2023-02-01T05:27:20;8.80;;;4.27;;
21339;SDS011;10828;47.064;15.422;2023-02-01T05:29:47;6.63;;;2.67;;
21339;SDS011;10828;47.064;15.422;2023-02-01T05:32:14;9.47;;;2.40;;
21339;SDS011;10828;47.064;15.422;2023-02-01T05:34:41;11.77;;;2.93;;
21339;SDS011;10828;47.064;15.422;2023-02-01T05:37:08;8.00;;;2.63;;
21339;SDS011;10828;47.064;15.422;2023-02-01T05:39:34;11.17;;;4.33;;
21339;SDS011;10828;47.064;15.422;2023-02-01T05:42:00;6.70;;;2.43;;
21339;SDS011;10828;47.064;15.422;2023-02-01T05:44:26;24.87;;;3.53;;
21339;SDS011;10828;47.064;15.422;2023-02-01T05:46:52;6.90;;;2.73;;
21339;SDS011;10828;47.064;15.422;2023-02-01T05:49:17;13.43;;;3.00;;
21339;SDS011;10828;47.064;15.422;2023-02-01T05:51:45;5.43;;;2.60;;
21339;SDS011;10828;47.064;15.422;2023-02-01T05:54:13;8.70;;;3.50;;
21339;SDS011;10828;47.064;15.422;2023-02-01T05:56:38;8.50;;;3.00;;
21339;SDS011;10828;47.064;15.422;2023-02-01T05:59:06;8.20;;;2.67;;
21339;SDS011;10828;47.064;15.422;2023-02-01T06:01:34;6.90;;;2.70;;
21339;SDS011;10828;47.064;15.422;2023-02-01T06:04:01;6.93;;;3.00;;
21339;SDS011;10828;47.064;15.422;2023-02-01T06:06:28;6.97;;;2.83;;
21339;SDS011;10828;47.064;15.422;2023-02-01T06:08:54;10.17;;;3.10;;
21339;SDS011;10828;47.064;15.422;2023-02-01T06:11:20;8.03;;;3.27;;
21339;SDS011;10828;47.064;15.422;2023-02-01T06:13:47;6.23;;;2.73;;
21339;SDS011;10828;47.064;15.422;2023-02-01T06:16:14;9.80;;;4.30;;
21339;SDS011;10828;47.064;15.422;2023-02-01T06:18:49;6.37;;;3.27;;
21339;SDS011;10828;47.064;15.422;2023-02-01T06:21:15;13.57;;;3.73;;
21339;SDS011;10828;47.064;15.422;2023-02-01T06:23:50;12.03;;;3.60;;
21339;SDS011;10828;47.064;15.422;2023-02-01T06:26:19;8.10;;;2.37;;
21339;SDS011;10828;47.064;15.422;2023-02-01T06:28:48;11.50;;;3.17;;
21339;SDS011;10828;47.064;15.422;2023-02-01T06:31:14;6.07;;;2.77;;
21339;SDS011;10828;47.064;15.422;2023-02-01T06:33:40;8.83;;;2.43;;
21339;SDS011;10828;47.064;15.422;2023-02-01T06:36:12;11.27;;;2.53;;
21339;SDS011;10828;47.064;15.422;2023-02-01T06:38:41;6.70;;;2.23;;
21339;SDS011;10828;47.064;15.422;2023-02-01T06:41:08;10.77;;;3.97;;
21339;SDS011;10828;47.064;15.422;2023-02-01T06:43:35;7.13;;;1.77;;
21339;SDS011;10828;47.064;15.422;2023-02-01T06:46:07;7.83;;;2.83;;
21339;SDS011;10828;47.064;15.422;2023-02-01T06:48:37;11.30;;;2.80;;
21339;SDS011;10828;47.064;15.422;2023-02-01T06:51:04;6.67;;;2.37;;
21339;SDS011;10828;47.064;15.422;2023-02-01T06:53:32;8.60;;;2.23;;
21339;SDS011;10828;47.064;15.422;2023-02-01T06:56:01;6.23;;;3.13;;
21339;SDS011;10828;47.064;15.422;2023-02-01T06:58:29;9.60;;;3.37;;
21339;SDS011;10828;47.064;15.422;2023-02-01T07:00:56;4.43;;;2.07;;
21339;SDS011;10828;47.064;15.422;2023-02-01T07:03:28;8.13;;;3.43;;
21339;SDS011;10828;47.064;15.422;2023-02-01T07:05:56;11.57;;;3.50;;
21339;SDS011;10828;47.064;15.422;2023-02-01T07:08:27;7.70;;;3.07;;
21339;SDS011;10828;47.064;15.422;2023-02-01T07:10:55;14.30;;;3.47;;
21339;SDS011;10828;47.064;15.422;2023-02-01T07:13:22;14.93;;;3.37;;
21339;SDS011;10828;47.064;15.422;2023-02-01T07:15:47;7.50;;;3.17;;
21339;SDS011;10828;47.064;15.422;2023-02-01T07:18:14;8.23;;;3.13;;
21339;SDS011;10828;47.064;15.422;2023-02-01T07:20:41;7.17;;;3.33;;
21339;SDS011;10828;47.064;15.422;2023-02-01T07:23:10;14.17;;;3.57;;
21339;SDS011;10828;47.064;15.422;2023-02-01T07:25:36;9.20;;;2.93;;
21339;SDS011;10828;47.064;15.422;2023-02-01T07:28:04;8.23;;;2.80;;
21339;SDS011;10828;47.064;15.422;2023-02-01T07:30:32;7.60;;;2.37;;
21339;SDS011;10828;47.064;15.422;2023-02-01T07:32:58;4.73;;;2.30;;
21339;SDS011;10828;47.064;15.422;2023-02-01T07:35:28;11.33;;;3.30;;
21339;SDS011;10828;47.064;15.422;2023-02-01T07:37:56;4.53;;;2.40;;
21339;SDS011;10828;47.064;15.422;2023-02-01T07:40:23;18.73;;;3.97;;
21339;SDS011;10828;47.064;15.422;2023-02-01T07:42:55;18.60;;;4.53;;
21339;SDS011;10828;47.064;15.422;2023-02-01T07:45:23;9.80;;;4.13;;
21339;SDS011;10828;47.064;15.422;2023-02-01T07:47:51;22.03;;;3.30;;
21339;SDS011;10828;47.064;15.422;2023-02-01T07:50:20;28.77;;;5.57;;
21339;SDS011;10828;47.064;15.422;2023-02-01T07:52:47;10.03;;;3.53;;
21339;SDS011;10828;47.064;15.422;2023-02-01T07:55:13;9.10;;;4.07;;
21339;SDS011;10828;47.064;15.422;2023-02-01T07:57:44;10.33;;;4.03;;
21339;SDS011;10828;47.064;15.422;2023-02-01T08:00:15;13.33;;;3.10;;
21339;SDS011;10828;47.064;15.422;2023-02-01T08:03:05;13.47;;;4.97;;
21339;SDS011;10828;47.064;15.422;2023-02-01T08:05:34;20.60;;;3.37;;
21339;SDS011;10828;47.064;15.422;2023-02-01T08:08:03;17.53;;;5.07;;
21339;SDS011;10828;47.064;15.422;2023-02-01T08:10:29;30.67;;;5.57;;
21339;SDS011;10828;47.064;15.422;2023-02-01T08:12:57;31.40;;;5.03;;
21339;SDS011;10828;47.064;15.422;2023-02-01T08:15:25;30.00;;;5.83;;
21339;SDS011;10828;47.064;15.422;2023-02-01T08:17:52;23.50;;;4.77;;
21339;SDS011;10828;47.064;15.422;2023-02-01T08:20:20;14.13;;;4.27;;
21339;SDS011;10828;47.064;15.422;2023-02-01T08:22:55;17.33;;;4.93;;
21339;SDS011;10828;47.064;15.422;2023-02-01T08:25:25;8.90;;;3.27;;
21339;SDS011;10828;47.064;15.422;2023-02-01T08:27:51;16.73;;;5.30;;
21339;SDS011;10828;47.064;15.422;2023-02-01T08:30:18;16.83;;;3.60;;
21339;SDS011;10828;47.064;15.422;2023-02-01T08:32:50;17.27;;;4.67;;
21339;SDS011;10828;47.064;15.422;2023-02-01T08:35:16;24.83;;;3.63;;
21339;SDS011;10828;47.064;15.422;2023-02-01T08:37:42;11.53;;;4.07;;
21339;SDS011;10828;47.064;15.422;2023-02-01T08:40:09;24.33;;;4.30;;
21339;SDS011;10828;47.064;15.422;2023-02-01T08:42:36;22.03;;;4.37;;
21339;SDS011;10828;47.064;15.422;2023-02-01T08:45:21;15.30;;;3.93;;
21339;SDS011;10828;47.064;15.422;2023-02-01T08:47:50;27.57;;;5.47;;
21339;SDS011;10828;47.064;15.422;2023-02-01T08:50:16;13.10;;;3.73;;
21339;SDS011;10828;47.064;15.422;2023-02-01T08:52:43;7.97;;;3.33;;
21339;SDS011;10828;47.064;15.422;2023-02-01T08:55:10;25.67;;;3.30;;
21339;SDS011;10828;47.064;15.422;2023-02-01T08:57:39;17.27;;;6.17;;
21339;SDS011;10828;47.064;15.422;2023-02-01T09:00:12;14.60;;;5.83;;
21339;SDS011;10828;47.064;15.422;2023-02-01T09:02:41;9.37;;;3.63;;
21339;SDS011;10828;47.064;15.422;2023-02-01T09:05:09;18.73;;;4.27;;
21339;SDS011;10828;47.064;15.422;2023-02-01T09:07:36;14.43;;;3.70;;
21339;SDS011;10828;47.064;15.422;2023-02-01T09:10:02;9.03;;;3.93;;
21339;SDS011;10828;47.064;15.422;2023-02-01T09:12:30;10.87;;;3.07;;
21339;SDS011;10828;47.064;15.422;2023-02-01T09:14:57;11.80;;;2.93;;
21339;SDS011;10828;47.064;15.422;2023-02-01T09:17:25;12.03;;;2.80;;
21339;SDS011;10828;47.064;15.422;2023-02-01T09:19:52;15.20;;;3.20;;
21339;SDS011;10828;47.064;15.422;2023-02-01T09:22:18;14.27;;;3.13;;
21339;SDS011;10828;47.064;15.422;2023-02-01T09:24:45;13.80;;;3.63;;
21339;SDS011;10828;47.064;15.422;2023-02-01T09:27:11;20.13;;;3.67;;
21339;SDS011;10828;47.064;15.422;2023-02-01T09:29:37;8.10;;;2.67;;
21339;SDS011;10828;47.064;15.422;2023-02-01T09:32:05;11.40;;;3.10;;
21339;SDS011;10828;47.064;15.422;2023-02-01T09:34:31;12.07;;;3.50;;
21339;SDS011;10828;47.064;15.422;2023-02-01T09:36:58;10.13;;;3.13;;
21339;SDS011;10828;47.064;15.422;2023-02-01T09:39:23;7.50;;;2.70;;
21339;SDS011;10828;47.064;15.422;2023-02-01T09:41:58;16.37;;;6.30;;
21339;SDS011;10828;47.064;15.422;2023-02-01T09:44:37;9.37;;;3.30;;
21339;SDS011;10828;47.064;15.422;2023-02-01T09:47:20;19.20;;;3.77;;
21339;SDS011;10828;47.064;15.422;2023-02-01T09:50:13;14.13;;;3.50;;
21339;SDS011;10828;47.064;15.422;2023-02-01T09:58:15;7.97;;;3.90;;
21339;SDS011;10828;47.064;15.422;2023-02-01T10:00:53;12.27;;;4.17;;
21339;SDS011;10828;47.064;15.422;2023-02-01T10:03:32;8.50;;;3.47;;
21339;SDS011;10828;47.064;15.422;2023-02-01T10:11:10;10.13;;;3.47;;
21339;SDS011;10828;47.064;15.422;2023-02-01T10:13:54;8.27;;;2.60;;
21339;SDS011;10828;47.064;15.422;2023-02-01T10:25:03;14.23;;;4.47;;
21339;SDS011;10828;47.064;15.422;2023-02-01T10:30:22;18.90;;;3.80;;
21339;SDS011;10828;47.064;15.422;2023-02-01T10:32:56;15.23;;;4.10;;
21339;SDS011;10828;47.064;15.422;2023-02-01T10:35:34;16.13;;;5.00;;
21339;SDS011;10828;47.064;15.422;2023-02-01T10:38:03;13.13;;;4.57;;
21339;SDS011;10828;47.064;15.422;2023-02-01T10:40:41;14.27;;;3.93;;
21339;SDS011;10828;47.064;15.422;2023-02-01T10:43:07;17.33;;;3.63;;
21339;SDS011;10828;47.064;15.422;2023-02-01T10:45:40;16.07;;;3.87;;
21339;SDS011;10828;47.064;15.422;2023-02-01T10:48:07;10.87;;;3.07;;
21339;SDS011;10828;47.064;15.422;2023-02-01T10:53:29;8.27;;;3.43;;
21339;SDS011;10828;47.064;15.422;2023-02-01T10:56:10;5.70;;;1.70;;
21339;SDS011;10828;47.064;15.422;2023-02-01T10:58:44;7.83;;;1.67;;
21339;SDS011;10828;47.064;15.422;2023-02-01T11:01:22;13.97;;;1.90;;
21339;SDS011;10828;47.064;15.422;2023-02-01T11:04:12;6.87;;;2.07;;
21339;SDS011;10828;47.064;15.422;2023-02-01T11:06:46;5.10;;;1.60;;
21339;SDS011;10828;47.064;15.422;2023-02-01T11:09:35;7.77;;;2.50;;
21339;SDS011;10828;47.064;15.422;2023-02-01T11:12:04;24.23;;;2.67;;
21339;SDS011;10828;47.064;15.422;2023-02-01T11:14:45;10.33;;;2.00;;
21339;SDS011;10828;47.064;15.422;2023-02-01T11:17:32;6.27;;;1.63;;
21339;SDS011;10828;47.064;15.422;2023-02-01T11:20:05;4.50;;;1.70;;
21339;SDS011;10828;47.064;15.422;2023-02-01T11:22:41;10.70;;;2.10;;
21339;SDS011;10828;47.064;15.422;2023-02-01T11:25:19;5.10;;;1.80;;
21339;SDS011;10828;47.064;15.422;2023-02-01T11:27:49;4.60;;;1.83;;
21339;SDS011;10828;47.064;15.422;2023-02-01T11:33:04;8.23;;;2.07;;
21339;SDS011;10828;47.064;15.422;2023-02-01T11:35:37;10.20;;;2.33;;
21339;SDS011;10828;47.064;15.422;2023-02-01T11:40:45;10.10;;;2.63;;
21339;SDS011;10828;47.064;15.422;2023-02-01T11:43:26;6.60;;;2.37;;
21339;SDS011;10828;47.064;15.422;2023-02-01T11:46:03;5.13;;;2.37;;
21339;SDS011;10828;47.064;15.422;2023-02-01T11:48:41;5.73;;;1.43;;
21339;SDS011;10828;47.064;15.422;2023-02-01T11:57:30;3.87;;;1.53;;
21339;SDS011;10828;47.064;15.422;2023-02-01T11:59:49;0.40;;;0.30;;
21339;SDS011;10828;47.064;15.422;2023-02-01T12:33:16;1.30;;;0.17;;
21339;SDS011;10828;47.064;15.422;2023-02-01T12:47:05;3.70;;;0.50;;
21339;SDS011;10828;47.064;15.422;2023-02-01T12:52:58;0.20;;;0.20;;
21339;SDS011;10828;47.064;15.422;2023-02-01T12:55:53;1.25;;;0.40;;
21339;SDS011;10828;47.064;15.422;2023-02-01T12:58:32;0.30;;;0.30;;
21339;SDS011;10828;47.064;15.422;2023-02-01T13:06:44;2.03;;;0.30;;
21339;SDS011;10828;47.064;15.422;2023-02-01T13:11:42;0.87;;;0.50;;
21339;SDS011;10828;47.064;15.422;2023-02-01T13:16:49;2.77;;;0.30;;
21339;SDS011;10828;47.064;15.422;2023-02-01T13:19:21;5.30;;;0.60;;
21339;SDS011;10828;47.064;15.422;2023-02-01T13:22:02;6.03;;;0.70;;
21339;SDS011;10828;47.064;15.422;2023-02-01T13:24:53;4.73;;;0.53;;
21339;SDS011;10828;47.064;15.422;2023-02-01T13:27:30;0.20;;;0.20;;
21339;SDS011;10828;47.064;15.422;2023-02-01T13:30:10;0.47;;;0.30;;
21339;SDS011;10828;47.064;15.422;2023-02-01T13:41:24;0.67;;;0.30;;
21339;SDS011;10828;47.064;15.422;2023-02-01T13:43:59;0.70;;;0.40;;
21339;SDS011;10828;47.064;15.422;2023-02-01T13:46:30;6.87;;;0.60;;
21339;SDS011;10828;47.064;15.422;2023-02-01T13:49:13;2.20;;;0.40;;
21339;SDS011;10828;47.064;15.422;2023-02-01T13:51:54;0.33;;;0.20;;
21339;SDS011;10828;47.064;15.422;2023-02-01T13:54:26;0.70;;;0.27;;
21339;SDS011;10828;47.064;15.422;2023-02-01T14:19:30;0.77;;;0.30;;
21339;SDS011;10828;47.064;15.422;2023-02-01T14:21:58;0.97;;;0.40;;
21339;SDS011;10828;47.064;15.422;2023-02-01T14:24:49;1.03;;;0.30;;
21339;SDS011;10828;47.064;15.422;2023-02-01T14:27:21;1.33;;;0.40;;
21339;SDS011;10828;47.064;15.422;2023-02-01T14:29:52;1.03;;;0.40;;
21339;SDS011;10828;47.064;15.422;2023-02-01T14:35:06;0.77;;;0.40;;
21339;SDS011;10828;47.064;15.422;2023-02-01T14:37:45;1.47;;;0.30;;
21339;SDS011;10828;47.064;15.422;2023-02-01T14:40:33;0.80;;;0.37;;
21339;SDS011;10828;47.064;15.422;2023-02-01T14:43:01;0.50;;;0.30;;
21339;SDS011;10828;47.064;15.422;2023-02-01T14:46:07;1.87;;;0.40;;
21339;SDS011;10828;47.064;15.422;2023-02-01T14:51:02;4.07;;;0.60;;
21339;SDS011;10828;47.064;15.422;2023-02-01T14:53:38;1.67;;;0.60;;
21339;SDS011;10828;47.064;15.422;2023-02-01T14:56:23;4.57;;;0.70;;
21339;SDS011;10828;47.064;15.422;2023-02-01T14:59:09;5.50;;;0.70;;
21339;SDS011;10828;47.064;15.422;2023-02-01T15:01:48;8.80;;;0.60;;
21339;SDS011;10828;47.064;15.422;2023-02-01T15:04:27;1.27;;;0.40;;
21339;SDS011;10828;47.064;15.422;2023-02-01T15:07:10;0.83;;;0.30;;
21339;SDS011;10828;47.064;15.422;2023-02-01T15:09:57;2.53;;;0.50;;
21339;SDS011;10828;47.064;15.422;2023-02-01T15:12:26;1.83;;;0.93;;
21339;SDS011;10828;47.064;15.422;2023-02-01T15:17:53;0.57;;;0.30;;
21339;SDS011;10828;47.064;15.422;2023-02-01T15:20:23;2.07;;;0.40;;
21339;SDS011;10828;47.064;15.422;2023-02-01T15:22:59;0.67;;;0.30;;
21339;SDS011;10828;47.064;15.422;2023-02-01T15:25:45;2.77;;;0.50;;
21339;SDS011;10828;47.064;15.422;2023-02-01T15:28:22;3.77;;;0.87;;
21339;SDS011;10828;47.064;15.422;2023-02-01T15:30:55;2.33;;;0.57;;
21339;SDS011;10828;47.064;15.422;2023-02-01T15:33:57;1.90;;;0.70;;
21339;SDS011;10828;47.064;15.422;2023-02-01T15:36:26;1.63;;;0.80;;
21339;SDS011;10828;47.064;15.422;2023-02-01T15:42:01;0.60;;;0.40;;
21339;SDS011;10828;47.064;15.422;2023-02-01T15:44:40;4.73;;;0.73;;
21339;SDS011;10828;47.064;15.422;2023-02-01T16:37:51;4.20;;;0.80;;
21339;SDS011;10828;47.064;15.422;2023-02-01T16:40:28;1.53;;;0.70;;
21339;SDS011;10828;47.064;15.422;2023-02-01T16:43:29;1.43;;;0.60;;
21339;SDS011;10828;47.064;15.422;2023-02-01T16:46:01;1.10;;;0.43;;
